• Join FlightAware (Why Join?)
  • Login
  • US Flag 
10:24PM EDT


 

Airport Tracker/Info


-or-


 

Live Flight TrackerFlight Track Log ✈ N490AM ✈ 17-May-2012 ✈ KMDW - KBHM

Flight Track Log - Related Links

Times and Time Zones

All times are in EDT time to prevent confusion due to time zone crossing. See the N490AM flight status page for this flight to view local times or setup timezone preferences in your user account.

Time Position Orientation Groundspeed Altitude Reporting Facility
EDT Latitude Longitude Course Direction KTS MPH feet Rate Location/Type
04:16PM 41.7667 -87.6500 188° South 225 259 4,400  Level Chicago TRACON
04:18PM 41.6067 -87.6808 189° South 269 310 9,600 2,160 Climbing Chicago Center
04:19PM 41.5214 -87.6997 191° South 291 335 11,600 1,860 Climbing Chicago Center
04:20PM 41.4300 -87.7242 180° South 318 366 13,400 1,800 Climbing Chicago Center
04:21PM 41.3322 -87.7239 182° South 341 392 15,300 1,680 Climbing Chicago Center
04:22PM 41.2447 -87.7289 176° South 348 400 16,800 1,500 Climbing Chicago Center
04:23PM 41.1464 -87.7203 174° South 353 406 18,400 1,560 Climbing Chicago Center
04:24PM 41.0461 -87.7064 174° South 353 406 20,000 1,500 Climbing Chicago Center
04:25PM 40.9439 -87.6925 174° South 364 419 21,500 1,620 Climbing Chicago Center
04:26PM 40.8289 -87.6761 173° South 378 435 23,300 1,680 Climbing Chicago Center
04:27PM 40.7225 -87.6594 175° South 383 441 24,900 1,500 Climbing Chicago Center
04:28PM 40.6139 -87.6458 174° South 388 447 26,400 1,260 Climbing Chicago Center
04:29PM 40.5011 -87.6297 175° South 393 452 27,500 1,080 Climbing Chicago Center
04:30PM 40.3861 -87.6164 172° South 410 472 28,600 960 Climbing Chicago Center
04:31PM 40.2947 -87.5986 177° South 417 480 29,300 900 Climbing Indianapolis Center
04:32PM 40.1781 -87.5919 173° South 440 506 30,300 1,020 Climbing Indianapolis Center
04:33PM 40.0581 -87.5714 174° South 445 512 31,400 1,020 Climbing Indianapolis Center
04:34PM 39.9253 -87.5531 175° South 445 512 32,400 960 Climbing Indianapolis Center
04:35PM 39.8047 -87.5381 173° South 437 503 33,400 840 Climbing Indianapolis Center
04:36PM 39.6825 -87.5175 175° South 442 509 34,100 600 Climbing Indianapolis Center
04:37PM 39.5597 -87.5028 174° South 442 509 34,600 420 Climbing Indianapolis Center
04:38PM 39.4375 -87.4850 175° South 442 509 35,000 180 Climbing Indianapolis Center
04:39PM 39.3128 -87.4700 173° South 447 514 35,000  Level Indianapolis Center
04:40PM 39.1842 -87.4497 175° South 460 529 35,000  Level Indianapolis Center
04:41PM 39.0636 -87.4353 174° South 446 513 35,000  Level Indianapolis Center
04:42PM 38.9350 -87.4175 174° South 452 520 35,000  Level Indianapolis Center
04:43PM 38.8061 -87.4000 174° South 462 532 35,000  Level Indianapolis Center
04:44PM 38.6794 -87.3825 174° South 462 532 35,000  Level Indianapolis Center
04:45PM 38.5528 -87.3653 176° South 462 532 35,000  Level Indianapolis Center
04:46PM 38.4281 -87.3536 174° South 462 532 35,000  Level Indianapolis Center
04:47PM 38.2992 -87.3361 174° South 462 532 35,000  Level Indianapolis Center
04:48PM 38.1706 -87.3189 174° South 462 532 35,000  Level Indianapolis Center
04:49PM 38.0439 -87.3019 174° South 462 532 35,000  Level Indianapolis Center
04:50PM 37.9169 -87.2850 174° South 462 532 35,000  Level Indianapolis Center
04:51PM 37.7056 -87.2592 174° South 452 520 35,000  Level Memphis Center
04:52PM 37.5947 -87.2450 173° South 452 520 35,000  Level Memphis Center
04:53PM 37.4653 -87.2242 175° South 457 526 35,000  Level Memphis Center
04:54PM 37.3400 -87.2108 173° South 462 532 35,000  Level Memphis Center
04:55PM 37.2122 -87.1925 175° South 462 532 35,000  Level Memphis Center
04:56PM 37.0892 -87.1792 173° South 455 524 35,000  Level Memphis Center
04:57PM 36.9656 -87.1608 175° South 455 524 35,000  Level Memphis Center
04:58PM 36.8403 -87.1475 174° South 455 524 35,000  Level Memphis Center
04:59PM 36.7128 -87.1319 175° South 455 524 35,000  Level Memphis Center
05:00PM 36.5811 -87.1167 174° South 455 524 35,000  Level Memphis Center
05:01PM 36.4556 -87.1008 175° South 450 518 35,000  Level Memphis Center
05:02PM 36.3322 -87.0878 174° South 450 518 35,000  Level Memphis Center
05:03PM 36.2172 -87.0719 174° South 457 526 35,000  Level Memphis Center
05:04PM 36.0936 -87.0564 174° South 462 532 35,000  Level Memphis Center
05:05PM 35.9661 -87.0408 174° South 462 532 35,000  Level Memphis Center
05:08PM 35.6908 -87.0072 175° South 462 532 35,000  Level Atlanta Center
05:09PM 35.5681 -86.9928 174° South 455 524 35,000  Level Atlanta Center
05:10PM 35.4453 -86.9781 173° South 455 524 35,000  Level Atlanta Center
05:11PM 35.3414 -86.9617 176° South 441 507 35,000  Level Atlanta Center
05:11PM 35.2233 -86.9511 175° South 440 506 35,000 -1,200 Level Memphis Center
05:12PM 35.0978 -86.9383 174° South 440 506 32,800 -2,340 Descending Memphis Center
05:13PM 34.9744 -86.9231 174° South 446 513 30,400 -2,460 Descending Memphis Center
05:14PM 34.8531 -86.9078 175° South 446 513 27,900 -2,460 Descending Memphis Center
05:15PM 34.7275 -86.8953 171° South 446 513 25,500 -2,340 Descending Memphis Center
05:16PM 34.6058 -86.8725 175° South 446 513 23,300 -2,340 Descending Memphis Center
05:17PM 34.4822 -86.8600 174° South 446 513 20,900 -2,340 Descending Memphis Center
05:20PM 34.2281 -86.8300 173° South 426 490 15,600 -2,280 Descending Atlanta Center
05:21PM 34.1200 -86.8139 177° South 408 470 13,400 -2,340 Descending Atlanta Center
05:22PM 34.0303 -86.8086 174° South 385 443 11,600 -1,380 Descending Atlanta Center
05:23PM 33.9033 -86.7919 189° South 389 448 10,700 -1,320 Descending Atlanta Center
05:24PM 33.8153 -86.8092 196° South 349 402 8,700 -2,040 Descending Atlanta Center
05:25PM 33.7353 -86.8364 196° South 317 365 6,700 -2,040 Descending Atlanta Center
05:26PM 33.6639 -86.8617 196° South 293 337 4,700 -1,500 Descending Atlanta Center
05:27PM 33.5964 -86.8844 181° South 271 312 3,800 -900 Descending Atlanta Center
05:28PM 33.5464 -86.8853 120° Southeast 244 281 2,900 -900 Descending Atlanta Center
05:29PM 33.5206 -86.8319 120° Southeast 163 188 2,000 -960 Descending Atlanta Center